Terminal Aerodrome Forecast
Issued by NWS Louisville, KY

Home | Current Version | Previous Version | Text Only | Print | Product List | Glossary On
Versions: 1 2 3 4 5 6 7 8 9 10 11 12 13
000
FTUS43 KLMK 212320
TAFSDF
TAF
KSDF 212320Z 2200/2306 19006KT P6SM OVC250
     FM221600 26010G18KT P6SM VCSH BKN050
     FM221900 25012G20KT P6SM -SHRA VCTS BKN045CB
     FM230000 26009KT P6SM VCSH BKN035=

USA.gov is the U.S. government's official web portal to all federal, state and local government web resources and services.